createdAt,value
2019-04-20T00:01:40.782Z,32.40
2019-04-20T00:04:20.703Z,32.30
2019-04-20T00:06:50.123Z,32.30
2019-04-20T00:09:26.014Z,32.30
2019-04-20T00:12:06.263Z,32.30
2019-04-20T00:14:32.091Z,32.30
2019-04-20T00:17:02.950Z,32.20
2019-04-20T00:19:40.451Z,32.20
2019-04-20T00:22:15.234Z,32.10
2019-04-20T00:25:04.049Z,32.00
2019-04-20T00:27:55.418Z,32.00
2019-04-20T00:30:32.543Z,31.90
2019-04-20T00:32:53.250Z,31.90
2019-04-20T00:35:14.760Z,31.80
2019-04-20T00:37:48.777Z,31.70
2019-04-20T00:40:21.527Z,31.70
2019-04-20T00:42:55.654Z,31.80
2019-04-20T00:45:30.558Z,31.70
2019-04-20T00:48:08.109Z,31.70
2019-04-20T00:50:53.968Z,31.50
2019-04-20T00:53:19.846Z,31.20
2019-04-20T00:55:44.497Z,31.00
2019-04-20T00:58:23.396Z,31.00
2019-04-20T01:01:18.896Z,31.10
2019-04-20T01:03:39.066Z,31.20
2019-04-20T01:06:23.145Z,31.30
2019-04-20T01:08:48.478Z,31.30
2019-04-20T01:11:27.000Z,31.30
2019-04-20T01:14:00.553Z,31.30
2019-04-20T01:16:36.597Z,31.30
2019-04-20T01:19:01.782Z,31.20
2019-04-20T01:21:35.478Z,31.20
2019-04-20T01:24:08.884Z,31.20
2019-04-20T01:26:43.676Z,31.10
2019-04-20T01:29:25.015Z,31.10
2019-04-20T01:32:03.619Z,31.10
2019-04-20T01:34:37.950Z,31.10
2019-04-20T01:37:14.462Z,31.00
2019-04-20T01:39:37.045Z,31.00
2019-04-20T01:42:04.595Z,31.00
2019-04-20T01:44:41.922Z,30.80
2019-04-20T01:47:11.609Z,30.70
2019-04-20T01:49:48.633Z,30.70
2019-04-20T01:52:27.099Z,30.80
2019-04-20T01:55:22.750Z,30.90
2019-04-20T01:57:59.876Z,31.00
2019-04-20T02:00:44.853Z,31.00
2019-04-20T02:03:55.488Z,31.00
2019-04-20T02:06:28.634Z,30.90
2019-04-20T02:09:06.721Z,30.80
2019-04-20T02:11:40.144Z,30.80
2019-04-20T02:14:11.994Z,30.70
2019-04-20T02:16:48.069Z,30.60
2019-04-20T02:19:30.702Z,30.60
2019-04-20T02:22:03.952Z,30.50
2019-04-20T02:24:25.773Z,30.50
2019-04-20T02:26:57.934Z,30.50
2019-04-20T02:29:50.733Z,30.40
2019-04-20T02:32:27.248Z,30.40
2019-04-20T02:35:34.617Z,30.40
2019-04-20T02:38:36.856Z,30.10
2019-04-20T02:40:50.574Z,29.90
2019-04-20T02:43:39.628Z,29.70
2019-04-20T02:45:57.597Z,29.60
2019-04-20T02:48:39.387Z,29.50
2019-04-20T02:53:53.623Z,29.30
2019-04-20T02:56:21.866Z,29.30
2019-04-20T02:59:13.182Z,29.20
2019-04-20T03:01:55.305Z,29.10
2019-04-20T03:04:01.888Z,28.90
2019-04-20T03:06:46.718Z,28.90
2019-04-20T03:09:29.875Z,28.80
2019-04-20T03:12:06.151Z,28.70
2019-04-20T03:14:30.393Z,28.60
2019-04-20T03:17:10.312Z,28.50
2019-04-20T03:19:37.606Z,28.50
2019-04-20T03:22:24.579Z,28.50
2019-04-20T03:24:54.439Z,28.50
2019-04-20T03:27:33.107Z,28.70
2019-04-20T03:31:04.036Z,29.00
2019-04-20T03:33:24.452Z,29.30
2019-04-20T03:35:55.197Z,29.40
2019-04-20T03:38:06.085Z,29.50
2019-04-20T03:40:29.997Z,29.50
2019-04-20T03:42:52.611Z,29.60
2019-04-20T03:45:26.553Z,29.50
2019-04-20T03:48:09.857Z,29.50
2019-04-20T03:50:51.146Z,29.50
2019-04-20T03:53:39.736Z,29.50
2019-04-20T03:55:58.882Z,29.50
2019-04-20T03:58:55.467Z,29.50
2019-04-20T04:02:20.074Z,29.50
2019-04-20T04:04:38.955Z,29.50
2019-04-20T04:06:56.544Z,29.50
2019-04-20T04:09:37.059Z,29.50
2019-04-20T04:12:54.750Z,29.60
2019-04-20T04:15:27.529Z,29.60
2019-04-20T04:18:07.401Z,29.70
2019-04-20T04:20:41.851Z,29.70
2019-04-20T04:23:24.583Z,29.70
2019-04-20T04:26:00.841Z,29.70
2019-04-20T04:28:31.416Z,29.80
2019-04-20T04:31:23.307Z,29.70
2019-04-20T04:36:15.499Z,29.80
2019-04-20T04:38:57.179Z,29.80
2019-04-20T04:41:38.036Z,29.70
2019-04-20T04:43:53.798Z,29.60
2019-04-20T04:46:12.374Z,29.60
2019-04-20T04:48:47.481Z,29.70
2019-04-20T04:51:22.735Z,29.70
2019-04-20T04:53:59.802Z,29.60
2019-04-20T04:56:26.990Z,29.50
2019-04-20T04:59:00.293Z,29.30
2019-04-20T05:01:35.344Z,29.20
2019-04-20T05:04:25.185Z,29.50
2019-04-20T05:06:53.552Z,29.80
2019-04-20T05:09:15.310Z,29.90
2019-04-20T05:11:50.720Z,29.90
2019-04-20T05:14:26.256Z,29.90
2019-04-20T05:17:07.367Z,30.00
2019-04-20T05:19:49.792Z,30.10
2019-04-20T05:22:24.910Z,30.20
2019-04-20T05:25:04.674Z,30.20
2019-04-20T05:27:57.240Z,30.30
2019-04-20T05:30:10.112Z,30.30
2019-04-20T05:32:51.418Z,30.40
2019-04-20T05:35:37.859Z,30.30
2019-04-20T05:38:11.914Z,30.30
2019-04-20T05:40:46.214Z,30.40
2019-04-20T05:43:24.307Z,30.40
2019-04-20T05:45:50.207Z,30.40
2019-04-20T05:48:24.765Z,30.50
2019-04-20T05:51:01.781Z,30.50
2019-04-20T05:53:42.657Z,30.50
2019-04-20T05:56:10.639Z,30.60
2019-04-20T05:58:45.412Z,30.70
2019-04-20T06:01:22.942Z,30.80
2019-04-20T06:03:49.040Z,30.70
2019-04-20T06:06:27.437Z,30.70
2019-04-20T06:09:06.854Z,30.50
2019-04-20T06:11:34.987Z,30.70
2019-04-20T06:14:10.154Z,30.70
2019-04-20T06:17:21.209Z,30.60
2019-04-20T06:19:58.245Z,30.80
2019-04-20T06:22:35.879Z,30.60
2019-04-20T06:25:31.299Z,30.80
2019-04-20T06:27:45.051Z,30.90
2019-04-20T06:30:13.653Z,30.80
2019-04-20T06:34:01.436Z,30.80
2019-04-20T06:36:43.133Z,30.90
2019-04-20T06:39:02.271Z,30.90
2019-04-20T06:41:44.698Z,31.10
2019-04-20T06:44:08.209Z,31.20
2019-04-20T06:46:45.601Z,31.20
2019-04-20T06:49:18.295Z,31.30
2019-04-20T06:51:59.141Z,31.10
2019-04-20T06:54:20.002Z,31.50
2019-04-20T06:57:07.243Z,31.70
2019-04-20T06:59:54.999Z,31.90
2019-04-20T07:02:21.916Z,32.00
2019-04-20T07:04:49.615Z,32.20
2019-04-20T07:10:02.603Z,32.10
2019-04-20T07:12:24.100Z,32.10
2019-04-20T07:14:51.911Z,32.40
2019-04-20T07:17:54.690Z,32.40
2019-04-20T07:20:59.510Z,32.60
2019-04-20T07:23:32.940Z,32.60
2019-04-20T07:26:09.537Z,32.80
2019-04-20T07:28:41.337Z,33.00
2019-04-20T07:31:08.267Z,33.00
2019-04-20T07:33:50.967Z,33.20
2019-04-20T07:36:24.434Z,33.30
2019-04-20T07:38:54.086Z,33.40
2019-04-20T07:41:32.925Z,33.50
2019-04-20T07:44:24.823Z,33.50
2019-04-20T07:46:49.913Z,33.70
2019-04-20T07:49:08.665Z,33.50
2019-04-20T07:51:26.618Z,33.70
2019-04-20T07:54:24.591Z,33.60
2019-04-20T07:56:48.022Z,33.60
2019-04-20T07:59:14.251Z,33.50
2019-04-20T08:02:08.523Z,33.50
2019-04-20T08:04:36.402Z,33.50
2019-04-20T08:07:00.507Z,33.90
2019-04-20T08:09:37.937Z,34.00
2019-04-20T08:12:34.075Z,33.90
2019-04-20T08:15:03.771Z,33.90
2019-04-20T08:17:37.415Z,33.70
2019-04-20T08:20:05.727Z,34.00
2019-04-20T08:22:42.191Z,34.10
2019-04-20T08:25:08.302Z,34.10
2019-04-20T08:27:46.653Z,34.20
2019-04-20T08:30:55.742Z,34.40
2019-04-20T08:33:33.647Z,34.80
2019-04-20T08:36:13.537Z,34.50
2019-04-20T08:41:08.273Z,34.60
2019-04-20T08:46:20.712Z,34.80
2019-04-20T08:48:51.013Z,34.80
2019-04-20T08:51:26.025Z,34.90
2019-04-20T08:53:56.384Z,35.00
2019-04-20T08:56:30.209Z,34.80
2019-04-20T08:58:48.349Z,35.00
2019-04-20T09:01:26.573Z,34.90
2019-04-20T09:04:02.470Z,34.90
2019-04-20T09:06:40.021Z,35.10
2019-04-20T09:09:34.830Z,35.20
2019-04-20T09:11:55.632Z,35.20
2019-04-20T09:14:21.319Z,35.10
2019-04-20T09:17:07.272Z,35.40
2019-04-20T09:19:46.943Z,35.20
2019-04-20T09:22:40.531Z,35.00
2019-04-20T09:25:43.047Z,35.40
2019-04-20T09:27:51.697Z,35.50
2019-04-20T09:30:30.332Z,35.40
2019-04-20T09:33:14.585Z,35.50
2019-04-20T09:35:42.958Z,35.50
2019-04-20T09:38:13.488Z,35.60
2019-04-20T09:40:50.751Z,35.70
2019-04-20T09:43:32.320Z,35.80
2019-04-20T09:46:08.064Z,35.90
2019-04-20T09:48:42.633Z,35.80
2019-04-20T09:51:30.692Z,35.80
2019-04-20T09:53:54.862Z,36.60
2019-04-20T09:56:33.356Z,37.00
2019-04-20T09:59:12.245Z,37.40
2019-04-20T10:01:35.096Z,37.60
2019-04-20T10:04:01.291Z,37.90
2019-04-20T10:06:35.900Z,38.00
2019-04-20T10:09:09.671Z,37.90
2019-04-20T10:11:44.199Z,38.00
2019-04-20T10:14:16.459Z,37.80
2019-04-20T10:16:49.722Z,37.90
2019-04-20T10:19:26.550Z,38.00
2019-04-20T10:21:56.889Z,38.00
2019-04-20T10:24:30.538Z,38.10
2019-04-20T10:27:03.050Z,38.20
2019-04-20T10:29:35.576Z,38.10
2019-04-20T10:32:12.537Z,38.30
2019-04-20T10:34:41.157Z,38.40
2019-04-20T10:37:23.911Z,38.40
2019-04-20T10:39:56.603Z,38.20
2019-04-20T10:42:30.155Z,38.50
2019-04-20T10:45:04.144Z,38.60
2019-04-20T10:47:37.113Z,38.70
2019-04-20T10:50:11.313Z,38.70
2019-04-20T10:52:43.716Z,38.80
2019-04-20T10:55:16.507Z,38.80
2019-04-20T10:57:49.384Z,38.80
2019-04-20T11:00:41.806Z,38.60
2019-04-20T11:03:17.617Z,38.50
2019-04-20T11:05:50.972Z,38.70
2019-04-20T11:08:24.401Z,38.80
2019-04-20T11:11:07.054Z,38.60
2019-04-20T11:13:30.919Z,38.60
2019-04-20T11:16:04.198Z,38.50
2019-04-20T11:18:37.698Z,38.60
2019-04-20T11:21:11.427Z,38.00
2019-04-20T11:23:44.485Z,38.00
2019-04-20T11:26:18.023Z,38.20
2019-04-20T11:28:50.464Z,38.20
2019-04-20T11:31:26.811Z,38.10
2019-04-20T11:33:58.325Z,38.00
2019-04-20T11:36:31.023Z,38.20
2019-04-20T11:39:04.954Z,38.20
2019-04-20T11:41:38.988Z,38.20
2019-04-20T11:44:11.751Z,38.20
2019-04-20T11:46:44.928Z,38.20
2019-04-20T11:49:17.485Z,38.20
2019-04-20T11:51:49.848Z,38.30
2019-04-20T11:54:24.237Z,38.40
2019-04-20T11:56:57.406Z,38.00
2019-04-20T11:59:30.604Z,38.20
2019-04-20T12:02:26.935Z,38.40
2019-04-20T12:05:10.087Z,38.30
2019-04-20T12:07:40.575Z,38.30
2019-04-20T12:10:18.717Z,38.20
2019-04-20T12:12:50.463Z,38.30
2019-04-20T12:15:20.472Z,38.40
2019-04-20T12:17:53.666Z,38.50
2019-04-20T12:20:26.936Z,38.50
2019-04-20T12:23:00.237Z,38.60
2019-04-20T12:25:34.555Z,38.70
2019-04-20T12:28:07.473Z,38.70
2019-04-20T12:30:39.828Z,38.80
2019-04-20T12:33:13.454Z,39.00
2019-04-20T12:35:45.424Z,39.10
2019-04-20T12:38:19.006Z,39.10
2019-04-20T12:40:52.349Z,39.20
2019-04-20T12:43:25.542Z,39.10
2019-04-20T12:45:57.946Z,39.10
2019-04-20T12:48:31.488Z,39.10
2019-04-20T12:51:03.851Z,39.30
2019-04-20T12:53:36.224Z,39.40
2019-04-20T12:56:08.657Z,39.70
2019-04-20T12:58:43.358Z,39.90
2019-04-20T13:01:17.233Z,39.90
2019-04-20T13:03:48.070Z,39.90
2019-04-20T13:06:19.989Z,40.30
2019-04-20T13:08:56.866Z,40.80
2019-04-20T13:11:49.441Z,40.90
2019-04-20T13:15:26.454Z,40.90
2019-04-20T13:18:01.220Z,40.90
2019-04-20T13:20:34.117Z,41.30
2019-04-20T13:23:10.990Z,41.50
2019-04-20T13:25:43.392Z,41.90
2019-04-20T13:28:15.308Z,42.60
2019-04-20T13:30:48.055Z,43.10
2019-04-20T13:33:20.200Z,43.70
2019-04-20T13:35:52.570Z,44.20
2019-04-20T13:38:25.580Z,44.80
2019-04-20T13:40:57.856Z,45.10
2019-04-20T13:43:30.054Z,45.90
2019-04-20T13:46:02.902Z,46.40
2019-04-20T13:48:35.333Z,47.00
2019-04-20T13:51:07.872Z,47.50
2019-04-20T13:53:41.053Z,47.90
2019-04-20T13:56:16.165Z,48.10
2019-04-20T13:59:03.438Z,47.90
2019-04-20T14:01:59.075Z,47.80
2019-04-20T14:04:34.803Z,47.70
2019-04-20T14:07:06.887Z,47.40
2019-04-20T14:09:39.752Z,47.30
2019-04-20T14:12:22.488Z,47.40
2019-04-20T14:14:46.825Z,47.50
2019-04-20T14:17:19.626Z,47.30
2019-04-20T14:19:52.900Z,47.10
2019-04-20T14:22:25.000Z,47.30
2019-04-20T14:24:57.339Z,47.40
2019-04-20T14:27:30.830Z,47.40
2019-04-20T14:30:03.523Z,47.50
2019-04-20T14:32:36.863Z,47.60
2019-04-20T14:35:11.355Z,47.90
2019-04-20T14:37:44.007Z,48.10
2019-04-20T14:40:16.660Z,48.20
2019-04-20T14:42:52.990Z,48.30
2019-04-20T14:45:22.940Z,48.40
2019-04-20T14:47:55.090Z,48.40
2019-04-20T14:50:27.618Z,48.20
2019-04-20T14:53:00.019Z,48.40
2019-04-20T14:55:31.824Z,48.40
2019-04-20T14:58:09.078Z,48.90
2019-04-20T15:00:56.602Z,49.30
2019-04-20T15:03:40.915Z,49.70
2019-04-20T15:06:13.663Z,49.70
2019-04-20T15:08:45.790Z,49.50
2019-04-20T15:11:18.762Z,49.40
2019-04-20T15:13:50.952Z,49.30
2019-04-20T15:16:22.772Z,49.30
2019-04-20T15:19:25.734Z,49.30
2019-04-20T15:21:59.799Z,49.40
2019-04-20T15:24:31.986Z,49.60
2019-04-20T15:27:04.758Z,49.90
2019-04-20T15:29:38.194Z,50.00
2019-04-20T15:32:10.309Z,49.70
2019-04-20T15:34:42.748Z,49.40
2019-04-20T15:37:16.082Z,49.30
2019-04-20T15:39:48.381Z,49.30
2019-04-20T15:42:21.245Z,49.20
2019-04-20T15:44:53.566Z,49.10
2019-04-20T15:47:25.884Z,48.80
2019-04-20T15:49:58.115Z,48.70
2019-04-20T15:52:36.727Z,48.60
2019-04-20T15:55:11.812Z,48.60
2019-04-20T15:57:38.687Z,48.30
2019-04-20T16:00:11.766Z,48.20
2019-04-20T16:02:51.437Z,48.20
2019-04-20T16:05:40.926Z,47.80
2019-04-20T16:08:24.184Z,47.70
2019-04-20T16:10:57.197Z,47.40
2019-04-20T16:13:36.058Z,47.00
2019-04-20T16:16:03.821Z,46.40
2019-04-20T16:18:37.035Z,45.90
2019-04-20T16:21:14.275Z,45.50
2019-04-20T16:23:55.058Z,45.20
2019-04-20T16:26:47.481Z,44.60
2019-04-20T16:29:21.837Z,44.20
2019-04-20T16:31:54.383Z,43.50
2019-04-20T16:34:27.600Z,43.10
2019-04-20T16:37:00.156Z,42.60
2019-04-20T16:39:32.523Z,42.10
2019-04-20T16:42:06.510Z,41.70
2019-04-20T16:44:39.022Z,41.40
2019-04-20T16:47:12.300Z,41.20
2019-04-20T16:49:44.346Z,40.90
2019-04-20T16:52:16.912Z,40.80
2019-04-20T16:54:50.029Z,40.50
2019-04-20T16:57:23.573Z,40.40
2019-04-20T16:59:57.774Z,40.20
2019-04-20T17:02:29.924Z,39.90
2019-04-20T17:05:03.044Z,39.80
2019-04-20T17:07:42.826Z,39.50
2019-04-20T17:10:17.932Z,39.20
2019-04-20T17:12:51.440Z,38.80
2019-04-20T17:15:25.555Z,38.50
2019-04-20T17:17:58.950Z,38.20
2019-04-20T17:20:32.754Z,38.10
2019-04-20T17:23:08.362Z,37.90
2019-04-20T17:25:39.840Z,37.80
2019-04-20T17:28:40.656Z,37.60
2019-04-20T17:31:31.529Z,37.40
2019-04-20T17:34:27.037Z,37.20
2019-04-20T17:36:46.362Z,37.00
2019-04-20T17:39:30.244Z,36.90
2019-04-20T17:42:10.036Z,36.80
2019-04-20T17:44:41.252Z,36.70
2019-04-20T17:47:20.468Z,36.60
2019-04-20T17:49:51.578Z,36.50
2019-04-20T17:52:27.800Z,36.40
2019-04-20T17:54:47.550Z,36.40
2019-04-20T17:57:19.574Z,36.20
2019-04-20T17:59:59.927Z,36.20
2019-04-20T18:03:00.575Z,36.10
2019-04-20T18:05:39.097Z,36.00
2019-04-20T18:08:19.351Z,35.90
2019-04-20T18:10:37.915Z,35.80
2019-04-20T18:13:07.062Z,35.70
2019-04-20T18:15:49.835Z,35.70
2019-04-20T18:18:44.113Z,35.60
2019-04-20T18:21:26.686Z,35.50
2019-04-20T18:23:58.671Z,35.50
2019-04-20T18:26:47.947Z,35.40
2019-04-20T18:29:28.087Z,35.20
2019-04-20T18:31:47.326Z,35.00
2019-04-20T18:34:38.248Z,35.00
2019-04-20T18:37:16.419Z,34.90
2019-04-20T18:39:54.766Z,34.70
2019-04-20T18:42:28.379Z,34.80
2019-04-20T18:45:09.073Z,34.70
2019-04-20T18:47:45.540Z,34.70
2019-04-20T18:50:11.741Z,34.70
2019-04-20T18:52:35.684Z,34.70
2019-04-20T18:55:17.394Z,34.60
2019-04-20T18:57:43.456Z,34.60
2019-04-20T19:00:27.997Z,34.60
2019-04-20T19:02:57.749Z,34.40
2019-04-20T19:05:29.500Z,34.50
2019-04-20T19:08:06.809Z,34.40
2019-04-20T19:10:38.629Z,34.30
2019-04-20T19:13:22.438Z,34.20
2019-04-20T19:16:16.579Z,34.20
2019-04-20T19:19:03.957Z,34.10
2019-04-20T19:21:26.994Z,34.00
2019-04-20T19:24:06.595Z,34.00
2019-04-20T19:26:34.199Z,34.00
2019-04-20T19:29:14.017Z,34.00
2019-04-20T19:31:57.321Z,34.00
2019-04-20T19:34:31.488Z,34.00
2019-04-20T19:37:00.853Z,34.00
2019-04-20T19:39:40.233Z,33.90
2019-04-20T19:42:13.141Z,33.90
2019-04-20T19:44:44.945Z,33.90
2019-04-20T19:47:25.996Z,33.80
2019-04-20T19:49:45.007Z,33.80
2019-04-20T19:52:36.787Z,33.80
2019-04-20T19:55:02.551Z,33.80
2019-04-20T19:57:39.841Z,33.70
2019-04-20T19:59:55.538Z,33.80
2019-04-20T20:02:25.945Z,33.70
2019-04-20T20:05:04.703Z,33.70
2019-04-20T20:07:38.857Z,33.60
2019-04-20T20:10:08.908Z,33.60
2019-04-20T20:12:49.366Z,33.60
2019-04-20T20:15:24.221Z,33.50
2019-04-20T20:18:10.955Z,33.40
2019-04-20T20:20:47.626Z,33.40
2019-04-20T20:23:00.113Z,33.40
2019-04-20T20:25:38.422Z,33.40
2019-04-20T20:28:20.249Z,33.40
2019-04-20T20:30:53.642Z,33.40
2019-04-20T20:33:36.299Z,33.40
2019-04-20T20:35:58.355Z,33.40
2019-04-20T20:38:31.301Z,33.30
2019-04-20T20:41:05.701Z,33.30
2019-04-20T20:43:44.660Z,33.30
2019-04-20T20:46:16.249Z,33.30
2019-04-20T20:49:03.740Z,33.30
2019-04-20T20:51:39.411Z,33.20
2019-04-20T20:53:57.920Z,33.20
2019-04-20T20:56:27.725Z,33.20
2019-04-20T20:59:00.732Z,33.20
2019-04-20T21:01:39.566Z,33.20
2019-04-20T21:04:02.538Z,33.20
2019-04-20T21:06:34.983Z,33.20
2019-04-20T21:09:08.421Z,33.10
2019-04-20T21:11:42.333Z,33.20
2019-04-20T21:14:21.063Z,33.20
2019-04-20T21:16:56.977Z,33.20
2019-04-20T21:19:41.794Z,33.10
2019-04-20T21:22:04.833Z,33.10
2019-04-20T21:24:36.138Z,33.10
2019-04-20T21:27:13.327Z,33.10
2019-04-20T21:29:48.642Z,33.10
2019-04-20T21:32:18.035Z,33.10
2019-04-20T21:34:55.624Z,33.00
2019-04-20T21:37:26.941Z,33.00
2019-04-20T21:40:00.555Z,33.00
2019-04-20T21:42:39.638Z,33.00
2019-04-20T21:45:10.316Z,33.00
2019-04-20T21:47:41.761Z,33.00
2019-04-20T21:50:34.204Z,33.00
2019-04-20T21:52:51.958Z,33.00
2019-04-20T21:55:21.774Z,33.00
2019-04-20T21:57:58.462Z,33.00
2019-04-20T22:00:42.680Z,33.00
2019-04-20T22:03:15.536Z,32.90
2019-04-20T22:05:48.487Z,32.90
2019-04-20T22:08:22.096Z,33.00
2019-04-20T22:10:55.355Z,33.00
2019-04-20T22:13:33.394Z,33.00
2019-04-20T22:16:06.489Z,33.00
2019-04-20T22:18:48.205Z,33.00
2019-04-20T22:21:19.869Z,33.00
2019-04-20T22:23:59.847Z,33.00
2019-04-20T22:26:26.720Z,32.90
2019-04-20T22:28:52.133Z,33.00
2019-04-20T22:31:24.363Z,32.80
2019-04-20T22:34:02.240Z,32.80
2019-04-20T22:36:35.599Z,32.80
2019-04-20T22:39:13.663Z,32.80
2019-04-20T22:41:54.652Z,32.80
2019-04-20T22:44:26.662Z,32.80
2019-04-20T22:46:58.477Z,32.90
2019-04-20T22:49:45.754Z,33.00
2019-04-20T22:52:24.075Z,33.00
2019-04-20T22:54:54.737Z,33.00
2019-04-20T22:57:27.725Z,33.00
2019-04-20T22:59:54.418Z,33.10
2019-04-20T23:02:22.548Z,33.20
2019-04-20T23:04:54.931Z,33.20
2019-04-20T23:07:28.410Z,33.20
2019-04-20T23:10:03.244Z,33.10
2019-04-20T23:12:35.760Z,33.30
2019-04-20T23:15:10.374Z,33.20
2019-04-20T23:17:45.866Z,33.20
2019-04-20T23:20:25.241Z,33.30
2019-04-20T23:22:51.761Z,33.20
2019-04-20T23:25:25.109Z,33.20
2019-04-20T23:28:00.564Z,33.20
2019-04-20T23:30:34.494Z,33.20
2019-04-20T23:33:04.380Z,33.20
2019-04-20T23:35:37.508Z,33.20
2019-04-20T23:38:14.357Z,33.20
2019-04-20T23:40:45.832Z,33.10
2019-04-20T23:43:28.855Z,33.10
2019-04-20T23:46:29.366Z,33.00
2019-04-20T23:49:24.038Z,33.00
2019-04-20T23:52:09.972Z,33.10
2019-04-20T23:54:29.366Z,33.10
2019-04-20T23:56:59.695Z,33.10
2019-04-20T23:59:38.032Z,33.00
